Time;durP1;ratioP1;P1;durP2;ratioP2;P2;SDS_P1;SDS_P2;PMS_P1;PMS_P2;Temp;Humidity;BMP_temperature;BMP_pressure;BME280_temperature;BME280_humidity;BME280_pressure;Samples;Min_cycle;Max_cycle;Signal;HPM_P1;HPM_P2
2022/12/05 00:01:15;;;;;;;13.48;4.05;;;14.80;94.60;;;;;;5033762;28;20022;-91
2022/12/05 00:03:40;;;;;;;9.88;3.72;;;14.80;94.60;;;;;;5034854;28;20497;-91
2022/12/05 00:06:06;;;;;;;6.35;3.28;;;14.80;94.60;;;;;;5033644;28;20026;-91
2022/12/05 00:08:32;;;;;;;9.77;3.85;;;14.80;94.60;;;;;;5031601;28;20801;-91
2022/12/05 00:10:57;;;;;;;8.52;3.90;;;14.80;94.60;;;;;;5033720;28;20026;-91
2022/12/05 00:13:23;;;;;;;8.10;3.20;;;14.80;94.60;;;;;;5033664;28;20026;-91
2022/12/05 00:15:49;;;;;;;6.40;3.28;;;14.80;94.60;;;;;;5033393;28;20053;-91
2022/12/05 00:18:14;;;;;;;6.72;3.67;;;14.80;94.60;;;;;;5033176;28;20404;-91
2022/12/05 00:20:49;;;;;;;5.97;3.45;;;14.80;94.60;;;;;;5033362;28;20474;-90
2022/12/05 00:23:14;;;;;;;5.50;3.10;;;14.80;94.70;;;;;;5033505;28;20052;-91
2022/12/05 00:25:40;;;;;;;7.78;3.65;;;14.80;94.70;;;;;;5033312;28;20018;-91
2022/12/05 00:28:06;;;;;;;7.07;3.58;;;14.80;94.70;;;;;;5034244;28;20033;-91
2022/12/05 00:30:32;;;;;;;5.65;3.15;;;14.70;94.60;;;;;;5032521;28;20025;-91
2022/12/05 00:32:57;;;;;;;8.73;3.75;;;14.70;94.70;;;;;;5033331;28;20490;-90
2022/12/05 00:35:23;;;;;;;9.77;3.85;;;14.70;94.70;;;;;;5032948;28;20029;-91
2022/12/05 00:37:49;;;;;;;9.60;3.47;;;14.80;94.70;;;;;;5014451;28;20048;-91
2022/12/05 00:40:15;;;;;;;7.10;3.50;;;14.70;94.70;;;;;;5013350;28;20018;-91
2022/12/05 00:42:40;;;;;;;5.80;3.13;;;14.70;94.70;;;;;;5013261;28;20022;-91
2022/12/05 00:45:06;;;;;;;6.63;3.30;;;14.70;94.80;;;;;;5013120;28;20447;-91
2022/12/05 00:47:36;;;;;;;6.20;3.22;;;14.70;94.70;;;;;;5013024;28;20113;-91
2022/12/05 00:50:05;;;;;;;7.43;3.72;;;14.70;94.80;;;;;;5014667;28;20029;-91
2022/12/05 00:52:31;;;;;;;7.43;3.40;;;14.70;94.80;;;;;;5012904;28;20117;-91
2022/12/05 00:54:56;;;;;;;8.38;3.00;;;14.70;94.80;;;;;;5012751;28;20064;-91
2022/12/05 00:57:22;;;;;;;8.23;2.85;;;14.70;94.80;;;;;;5012705;28;20018;-91
2022/12/05 00:59:48;;;;;;;7.25;3.00;;;14.70;94.80;;;;;;5013049;28;20187;-91
2022/12/05 01:02:14;;;;;;;10.18;3.42;;;14.70;94.80;;;;;;5012660;28;20018;-90
2022/12/05 01:04:39;;;;;;;11.90;3.80;;;14.70;94.90;;;;;;5014442;28;20049;-93
2022/12/05 01:07:05;;;;;;;10.00;3.72;;;14.70;94.90;;;;;;5021264;28;20036;-91
2022/12/05 01:09:31;;;;;;;8.50;3.80;;;14.70;95.00;;;;;;5032579;28;20398;-91
2022/12/05 01:11:56;;;;;;;9.63;4.05;;;14.70;95.00;;;;;;5032541;28;20500;-92
2022/12/05 01:14:24;;;;;;;10.57;3.95;;;14.70;95.00;;;;;;5032327;28;20029;-91
2022/12/05 01:16:53;;;;;;;11.65;3.70;;;14.70;95.00;;;;;;5032259;28;20064;-91
2022/12/05 01:19:24;;;;;;;11.85;4.10;;;14.70;95.00;;;;;;5033055;28;20021;-91
2022/12/05 01:21:50;;;;;;;8.70;3.55;;;14.60;94.90;;;;;;5032267;28;20451;-91
2022/12/05 01:24:18;;;;;;;12.48;5.50;;;14.60;94.90;;;;;;5032106;28;20026;-92
2022/12/05 01:26:45;;;;;;;8.93;3.35;;;14.60;94.90;;;;;;5032197;28;20132;-91
2022/12/05 01:29:16;;;;;;;12.85;3.67;;;14.60;95.00;;;;;;5031847;28;20116;-91
2022/12/05 01:31:41;;;;;;;6.95;3.35;;;14.60;95.00;;;;;;5033428;28;20483;-91
2022/12/05 01:34:13;;;;;;;6.95;3.70;;;14.60;95.00;;;;;;5031958;28;20025;-91
2022/12/05 01:36:39;;;;;;;10.98;3.58;;;14.60;95.10;;;;;;5020198;28;20084;-91
2022/12/05 01:39:06;;;;;;;12.02;3.85;;;14.60;95.10;;;;;;5012052;28;20491;-92
2022/12/05 01:41:35;;;;;;;6.47;3.30;;;14.60;95.10;;;;;;5012287;28;20026;-91
2022/12/05 01:44:07;;;;;;;7.93;3.35;;;14.60;95.10;;;;;;5012168;28;20529;-91
2022/12/05 01:46:34;;;;;;;13.68;3.65;;;14.60;95.40;;;;;;5012120;28;20026;-91
2022/12/05 01:49:29;;;;;;;12.07;3.30;;;14.60;95.10;;;;;;5011921;28;20025;-91
2022/12/05 01:52:04;;;;;;;11.35;3.17;;;14.60;95.00;;;;;;5013236;28;20108;-92
2022/12/05 01:54:30;;;;;;;5.35;3.05;;;14.60;95.10;;;;;;5013205;28;20036;-91
2022/12/05 01:57:03;;;;;;;5.38;3.00;;;14.60;95.10;;;;;;5011947;28;20113;-92
2022/12/05 01:59:33;;;;;;;10.65;2.97;;;14.60;95.10;;;;;;5012896;28;20134;-91
2022/12/05 02:01:59;;;;;;;5.68;3.00;;;14.60;95.10;;;;;;5011918;28;20018;-91
2022/12/05 02:04:26;;;;;;;9.55;3.78;;;14.60;95.10;;;;;;5011336;28;20022;-91
2022/12/05 02:06:52;;;;;;;10.90;3.53;;;14.60;95.10;;;;;;5013365;28;20144;-91
2022/12/05 02:09:18;;;;;;;10.70;3.08;;;14.60;95.10;;;;;;5011524;28;20593;-90
2022/12/05 02:11:53;;;;;;;8.95;4.05;;;14.50;95.20;;;;;;5011757;28;20038;-91
2022/12/05 02:14:25;;;;;;;8.25;3.17;;;14.50;95.20;;;;;;5011727;28;20522;-92
2022/12/05 02:16:56;;;;;;;9.10;4.03;;;14.50;95.20;;;;;;5011561;28;20451;-91
2022/12/05 02:19:52;;;;;;;10.98;2.92;;;14.50;95.20;;;;;;5012576;28;20030;-92
2022/12/05 02:22:30;;;;;;;12.13;3.00;;;14.50;95.20;;;;;;5011576;28;20061;-91
2022/12/05 02:25:28;;;;;;;6.93;2.97;;;14.50;95.20;;;;;;5012859;28;20071;-91
2022/12/05 02:28:12;;;;;;;9.75;3.42;;;14.50;95.30;;;;;;5011338;28;20026;-91
2022/12/05 02:30:42;;;;;;;8.63;3.35;;;14.50;95.30;;;;;;5011420;28;20116;-91
2022/12/05 02:33:20;;;;;;;5.38;3.15;;;14.50;95.20;;;;;;5012724;28;20026;-92
2022/12/05 02:35:50;;;;;;;5.60;3.35;;;14.50;95.30;;;;;;5014643;28;20098;-91
2022/12/05 02:38:22;;;;;;;7.70;3.65;;;14.50;95.30;;;;;;5030911;28;20033;-91
2022/12/05 02:41:06;;;;;;;14.27;3.28;;;14.50;95.30;;;;;;5031160;28;20104;-91
2022/12/05 02:43:39;;;;;;;5.65;2.97;;;14.50;95.30;;;;;;5012285;28;20022;-92
2022/12/05 02:46:11;;;;;;;11.70;3.45;;;14.50;95.30;;;;;;5011490;28;20026;-91
2022/12/05 02:48:38;;;;;;;4.43;2.55;;;14.50;95.30;;;;;;5011173;28;20074;-91
2022/12/05 02:51:06;;;;;;;6.28;2.92;;;14.50;95.30;;;;;;5028768;28;20033;-91
2022/12/05 02:53:33;;;;;;;4.63;2.55;;;14.40;95.30;;;;;;5031025;28;20076;-91
2022/12/05 02:56:01;;;;;;;6.05;3.63;;;14.50;95.30;;;;;;5030680;28;20045;-91
2022/12/05 02:58:43;;;;;;;5.82;2.67;;;14.40;95.30;;;;;;5030821;28;20025;-91
2022/12/05 03:01:09;;;;;;;4.50;2.80;;;14.40;95.30;;;;;;5031016;28;20026;-91
2022/12/05 03:03:35;;;;;;;7.00;3.00;;;14.40;95.30;;;;;;5032002;28;20021;-92
2022/12/05 03:06:16;;;;;;;5.03;2.85;;;14.40;95.30;;;;;;5030893;28;20037;-91
2022/12/05 03:09:06;;;;;;;6.95;3.53;;;14.50;95.30;;;;;;5032063;28;20038;-91
2022/12/05 03:11:55;;;;;;;;;;;14.50;95.30;;;;;;5031359;28;20126;-91
2022/12/05 03:14:32;;;;;;;5.20;2.63;;;14.50;95.30;;;;;;5026616;28;20106;-91
2022/12/05 03:17:03;;;;;;;8.80;3.15;;;14.50;95.30;;;;;;5012524;28;20557;-91
2022/12/05 03:20:09;;;;;;;7.13;3.00;;;14.50;95.60;;;;;;5018580;28;20025;-91
2022/12/05 03:22:47;;;;;;;4.78;2.88;;;14.40;95.30;;;;;;5034659;28;20025;-91
2022/12/05 03:25:13;;;;;;;10.02;3.10;;;14.50;95.40;;;;;;5034390;28;20379;-91
2022/12/05 03:27:52;;;;;;;5.95;2.88;;;14.50;95.40;;;;;;5030474;28;20025;-91
2022/12/05 03:30:19;;;;;;;6.28;2.75;;;14.50;95.40;;;;;;5024721;28;20028;-91
2022/12/05 03:33:02;;;;;;;8.40;2.90;;;14.50;95.40;;;;;;5034451;28;20018;-91
2022/12/05 03:35:48;;;;;;;4.95;2.88;;;14.40;95.40;;;;;;5034410;28;20017;-90
2022/12/05 03:38:20;;;;;;;7.70;3.40;;;14.40;95.40;;;;;;5034309;28;20033;-91
2022/12/05 03:40:59;;;;;;;5.57;3.28;;;14.40;95.30;;;;;;5033917;28;20021;-92
2022/12/05 03:43:36;;;;;;;5.00;3.33;;;14.40;95.40;;;;;;5032769;28;20026;-91
2022/12/05 03:46:21;;;;;;;5.47;2.50;;;14.40;95.40;;;;;;5014407;28;20022;-92
2022/12/05 03:49:04;;;;;;;7.57;3.25;;;14.40;95.40;;;;;;5030057;28;20037;-91
2022/12/05 03:51:37;;;;;;;7.13;2.65;;;14.40;95.40;;;;;;5034016;28;20029;-91
2022/12/05 03:54:08;;;;;;;8.27;2.90;;;14.40;95.40;;;;;;5034010;28;20036;-91
2022/12/05 03:56:45;;;;;;;6.63;3.00;;;14.40;95.50;;;;;;5033873;28;20025;-91
2022/12/05 03:59:25;;;;;;;9.40;3.08;;;14.40;95.40;;;;;;5033711;28;20071;-91
2022/12/05 04:01:54;;;;;;;5.53;3.35;;;14.40;95.40;;;;;;5033026;28;20053;-91
2022/12/05 04:04:35;;;;;;;4.60;2.60;;;14.40;95.40;;;;;;5033667;28;20022;-91
2022/12/05 04:07:04;;;;;;;6.30;2.70;;;14.40;95.50;;;;;;5021013;28;20025;-91
2022/12/05 04:09:38;;;;;;;5.35;2.80;;;14.40;95.40;;;;;;5013744;28;20581;-91
2022/12/05 04:12:09;;;;;;;9.25;3.25;;;14.40;95.50;;;;;;5013862;28;20034;-91
2022/12/05 04:14:42;;;;;;;6.57;2.88;;;14.40;95.50;;;;;;5013828;28;20034;-91
2022/12/05 04:17:20;;;;;;;8.70;2.75;;;14.40;95.50;;;;;;5013658;28;20038;-91
2022/12/05 04:22:53;;;;;;;4.10;2.90;;;14.40;95.60;;;;;;5027434;28;20453;-91
2022/12/05 04:25:34;;;;;;;5.65;2.38;;;14.50;95.60;;;;;;5033530;28;20029;-91
2022/12/05 04:28:13;;;;;;;5.05;2.63;;;14.50;95.60;;;;;;5032664;28;20076;-91
2022/12/05 04:30:47;;;;;;;5.68;2.58;;;14.60;95.70;;;;;;5033354;28;20025;-91
2022/12/05 04:33:19;;;;;;;2.85;2.30;;;14.60;95.70;;;;;;5033254;28;20449;-91
2022/12/05 04:36:02;;;;;;;6.55;2.78;;;14.70;95.80;;;;;;5033161;28;20022;-92
2022/12/05 04:38:44;;;;;;;6.70;2.85;;;14.70;95.90;;;;;;5032773;28;20056;-92
2022/12/05 04:41:19;;;;;;;3.25;2.20;;;14.70;95.90;;;;;;5033083;28;20052;-91
2022/12/05 04:43:47;;;;;;;14.10;2.38;;;14.80;95.90;;;;;;5033076;28;20021;-92
2022/12/05 04:46:16;;;;;;;7.03;2.90;;;14.80;95.90;;;;;;5032916;28;20091;-91
2022/12/05 04:48:47;;;;;;;6.78;2.80;;;14.80;95.90;;;;;;5032777;28;20025;-92
2022/12/05 04:51:19;;;;;;;4.63;2.30;;;14.90;95.90;;;;;;5033226;28;20048;-92
2022/12/05 04:53:48;;;;;;;4.88;2.20;;;14.90;96.20;;;;;;5032736;28;20053;-92
2022/12/05 04:56:17;;;;;;;4.47;2.15;;;14.90;95.90;;;;;;5033032;28;20025;-92
2022/12/05 04:58:42;;;;;;;7.80;2.35;;;15.00;96.00;;;;;;5032643;28;20079;-91
2022/12/05 05:01:18;;;;;;;5.00;2.58;;;15.00;95.90;;;;;;5032783;28;20112;-92
2022/12/05 05:04:07;;;;;;;7.15;3.05;;;15.00;95.90;;;;;;5033428;28;20021;-91
2022/12/05 05:06:35;;;;;;;23.42;2.70;;;15.10;96.10;;;;;;5027219;28;20026;-92
2022/12/05 05:09:00;;;;;;;9.50;3.05;;;15.10;96.00;;;;;;5012769;28;20026;-91
2022/12/05 05:11:28;;;;;;;4.95;2.13;;;15.10;95.90;;;;;;5025317;28;20495;-92
2022/12/05 05:13:54;;;;;;;6.18;2.05;;;15.20;96.00;;;;;;5012901;28;20087;-91
2022/12/05 05:16:26;;;;;;;18.67;2.38;;;15.20;95.90;;;;;;5012537;28;20030;-91
2022/12/05 05:18:52;;;;;;;8.10;3.28;;;15.20;95.90;;;;;;5012303;28;20029;-92
2022/12/05 05:21:30;;;;;;;7.70;2.83;;;15.20;95.80;;;;;;5015493;28;20029;-91
2022/12/05 05:23:57;;;;;;;6.28;2.38;;;15.30;95.80;;;;;;5032260;28;20049;-93
2022/12/05 05:26:23;;;;;;;8.68;2.97;;;15.30;95.70;;;;;;5032490;28;20052;-91
2022/12/05 05:28:49;;;;;;;12.15;2.33;;;15.30;95.70;;;;;;5031956;28;20026;-92
2022/12/05 05:31:16;;;;;;;6.43;2.30;;;15.30;95.70;;;;;;5032230;28;20037;-92
2022/12/05 05:33:41;;;;;;;7.80;2.60;;;15.30;95.70;;;;;;5032197;28;20025;-92
2022/12/05 05:36:10;;;;;;;8.68;2.40;;;15.40;95.70;;;;;;5032080;28;20075;-92
2022/12/05 05:38:44;;;;;;;4.85;2.05;;;15.40;95.70;;;;;;5032126;28;20398;-91
2022/12/05 05:41:17;;;;;;;4.68;2.30;;;15.50;95.90;;;;;;5033348;28;20402;-92
2022/12/05 05:43:43;;;;;;;9.40;2.20;;;15.50;95.90;;;;;;5032887;28;20026;-92
2022/12/05 05:46:10;;;;;;;13.15;3.15;;;15.50;95.80;;;;;;5032854;28;20104;-92
2022/12/05 05:48:35;;;;;;;6.72;2.60;;;15.50;95.70;;;;;;5032863;28;20116;-91
2022/12/05 05:51:02;;;;;;;16.48;3.90;;;15.50;95.80;;;;;;5032514;28;20124;-92
2022/12/05 05:53:28;;;;;;;6.72;2.33;;;15.60;95.60;;;;;;5031990;28;20037;-91
2022/12/05 05:55:54;;;;;;;9.88;2.55;;;15.60;95.70;;;;;;5032619;28;20087;-92
2022/12/05 05:58:20;;;;;;;6.35;2.55;;;15.60;95.70;;;;;;5032563;28;20037;-90
2022/12/05 06:00:45;;;;;;;8.82;2.53;;;15.60;95.60;;;;;;5036115;28;20081;-90
2022/12/05 06:03:11;;;;;;;11.63;2.72;;;15.70;95.60;;;;;;5033465;28;20033;-90
2022/12/05 06:05:36;;;;;;;11.93;2.75;;;15.70;95.50;;;;;;5033215;28;20048;-92
2022/12/05 06:08:03;;;;;;;10.18;3.10;;;15.70;95.40;;;;;;5033159;28;20037;-91
2022/12/05 06:10:29;;;;;;;10.10;3.40;;;15.70;95.50;;;;;;5020797;28;20392;-91
2022/12/05 06:12:59;;;;;;;8.45;3.15;;;15.70;95.40;;;;;;5015851;28;20049;-91
2022/12/05 06:15:24;;;;;;;14.25;3.33;;;15.70;95.40;;;;;;5017319;28;20026;-91
2022/12/05 06:17:50;;;;;;;10.68;3.13;;;15.70;95.20;;;;;;5032057;28;20113;-91
2022/12/05 06:20:15;;;;;;;11.43;2.78;;;15.70;95.20;;;;;;5031632;28;20032;-91
2022/12/05 06:22:41;;;;;;;6.95;2.80;;;15.80;95.20;;;;;;5031752;28;20486;-91
2022/12/05 06:25:07;;;;;;;6.22;2.53;;;15.70;95.10;;;;;;5048546;28;20021;-90
2022/12/05 06:27:33;;;;;;;12.90;3.33;;;15.70;95.10;;;;;;5031071;28;20026;-89
2022/12/05 06:29:59;;;;;;;10.40;3.45;;;15.70;95.10;;;;;;5031773;28;20026;-89
2022/12/05 06:32:26;;;;;;;9.07;3.40;;;15.70;95.10;;;;;;5032556;28;20022;-89
2022/12/05 06:34:52;;;;;;;7.93;3.33;;;15.70;95.10;;;;;;5029168;28;20041;-89
2022/12/05 06:37:17;;;;;;;9.55;3.20;;;15.70;95.00;;;;;;5021235;28;20017;-89
2022/12/05 06:39:43;;;;;;;10.18;3.60;;;15.70;95.30;;;;;;5026072;28;20034;-89
2022/12/05 06:42:08;;;;;;;10.77;3.65;;;15.70;95.00;;;;;;5033129;28;20068;-89
2022/12/05 06:44:34;;;;;;;9.25;3.85;;;15.70;95.00;;;;;;5031500;28;20030;-90
2022/12/05 06:46:59;;;;;;;11.25;4.05;;;15.70;94.90;;;;;;5027593;28;20026;-89
2022/12/05 06:49:31;;;;;;;5.90;2.95;;;15.70;94.90;;;;;;5030441;28;20132;-90
2022/12/05 06:51:57;;;;;;;8.40;2.92;;;15.70;94.90;;;;;;5029220;28;20112;-89
2022/12/05 06:54:22;;;;;;;9.40;3.22;;;15.70;94.80;;;;;;5037473;28;20032;-91
2022/12/05 06:56:48;;;;;;;10.13;4.03;;;15.70;94.80;;;;;;5025330;28;20104;-90
2022/12/05 06:59:13;;;;;;;8.57;3.47;;;15.70;94.80;;;;;;5035590;28;20076;-90
2022/12/05 07:01:41;;;;;;;11.00;3.30;;;15.70;94.70;;;;;;5035811;28;20022;-90
2022/12/05 07:04:16;;;;;;;9.43;3.17;;;15.70;94.70;;;;;;5035188;28;20018;-91
2022/12/05 07:06:44;;;;;;;11.35;3.42;;;15.70;94.70;;;;;;5043735;28;20026;-91
2022/12/05 07:09:10;;;;;;;10.07;4.25;;;15.70;94.70;;;;;;5034943;28;20049;-90
2022/12/05 07:11:36;;;;;;;16.92;4.13;;;15.70;94.60;;;;;;5051815;28;20064;-91
2022/12/05 07:14:03;;;;;;;12.90;3.88;;;15.70;94.60;;;;;;5040498;28;20470;-90
2022/12/05 07:16:29;;;;;;;14.35;3.88;;;15.70;94.60;;;;;;5025392;28;20113;-92
2022/12/05 07:18:55;;;;;;;12.68;3.92;;;15.70;94.70;;;;;;5028558;28;20489;-92
2022/12/05 07:21:21;;;;;;;8.88;4.32;;;15.70;95.10;;;;;;5015425;28;20431;-90
2022/12/05 07:23:49;;;;;;;16.15;4.80;;;15.70;95.20;;;;;;5015046;28;20033;-90
2022/12/05 07:26:18;;;;;;;24.58;5.32;;;15.70;95.30;;;;;;5026218;28;20124;-91
2022/12/05 07:31:09;;;;;;;16.92;4.72;;;16.90;95.50;;;;;;5110300;27;20688;-88
2022/12/05 07:33:35;;;;;;;19.85;5.93;;;16.20;93.90;;;;;;5082518;28;20029;-89
2022/12/05 07:36:04;;;;;;;22.70;4.93;;;15.80;94.50;;;;;;5082614;28;20036;-88
2022/12/05 07:38:29;;;;;;;17.83;4.68;;;15.60;94.90;;;;;;5080747;28;20032;-89
2022/12/05 07:40:55;;;;;;;16.98;5.38;;;15.50;95.10;;;;;;5090361;28;20017;-90
2022/12/05 07:43:21;;;;;;;12.88;4.75;;;15.40;95.30;;;;;;5089610;28;20024;-89
2022/12/05 07:45:47;;;;;;;21.75;5.63;;;15.30;95.30;;;;;;5088950;28;20020;-88
2022/12/05 07:48:12;;;;;;;26.50;5.93;;;15.30;95.30;;;;;;5088529;28;20083;-89
2022/12/05 07:50:38;;;;;;;19.60;4.40;;;15.30;95.40;;;;;;5089079;28;20069;-89
2022/12/05 07:53:03;;;;;;;19.42;5.70;;;15.30;95.40;;;;;;5081266;28;20108;-89
2022/12/05 07:55:29;;;;;;;15.98;4.93;;;15.30;95.40;;;;;;5089446;28;20414;-89
2022/12/05 07:57:54;;;;;;;17.20;5.13;;;15.30;95.40;;;;;;5089653;28;20021;-89
2022/12/05 08:00:21;;;;;;;12.90;4.72;;;15.20;95.40;;;;;;5088826;28;20051;-92
2022/12/05 08:02:46;;;;;;;15.35;5.20;;;15.30;95.40;;;;;;5092955;28;20123;-92
2022/12/05 08:05:12;;;;;;;12.20;5.05;;;15.30;95.50;;;;;;5089320;28;20055;-91
2022/12/05 08:07:37;;;;;;;17.42;5.20;;;15.40;95.50;;;;;;5088569;28;20024;-90
2022/12/05 08:10:04;;;;;;;14.50;5.47;;;15.30;95.30;;;;;;5088197;28;20055;-89
2022/12/05 08:12:30;;;;;;;20.35;7.88;;;15.40;95.40;;;;;;5089002;28;20036;-89
2022/12/05 08:14:55;;;;;;;14.45;6.10;;;14.40;91.20;;;;;;5087912;28;20024;-88
2022/12/05 08:17:21;;;;;;;12.32;6.15;;;14.50;91.40;;;;;;5088216;28;20541;-88
2022/12/05 08:19:46;;;;;;;18.27;8.73;;;14.50;87.30;;;;;;5067852;28;20044;-87
2022/12/05 08:22:12;;;;;;;19.70;8.27;;;14.30;81.50;;;;;;5075051;28;20024;-88
2022/12/05 08:24:38;;;;;;;15.30;6.72;;;14.30;84.90;;;;;;5091087;28;20032;-92
2022/12/05 08:27:04;;;;;;;18.58;6.78;;;14.30;87.30;;;;;;5091501;28;20032;-90
2022/12/05 08:29:29;;;;;;;13.80;5.78;;;14.40;89.10;;;;;;5092607;28;20036;-92
2022/12/05 08:31:55;;;;;;;16.23;6.43;;;14.40;89.90;;;;;;5090970;28;20062;-92
2022/12/05 08:34:21;;;;;;;13.50;6.30;;;14.50;90.40;;;;;;5090764;28;20107;-92
2022/12/05 08:36:47;;;;;;;11.48;5.15;;;14.50;90.60;;;;;;5090264;28;20112;-91
2022/12/05 08:39:14;;;;;;;17.38;5.88;;;14.70;90.80;;;;;;5089336;28;20024;-92
2022/12/05 08:41:41;;;;;;;19.08;5.78;;;14.80;91.10;;;;;;5080356;28;20029;-88
2022/12/05 08:44:09;;;;;;;12.30;5.07;;;14.90;92.50;;;;;;5075406;28;20027;-88
2022/12/05 08:46:36;;;;;;;12.18;5.47;;;14.80;91.20;;;;;;5074956;28;20043;-87
2022/12/05 08:49:05;;;;;;;9.70;4.43;;;14.70;91.40;;;;;;5074335;28;20021;-88
2022/12/05 08:51:31;;;;;;;9.70;4.60;;;14.70;91.70;;;;;;5074448;28;20020;-88
2022/12/05 08:53:56;;;;;;;8.95;4.05;;;14.60;91.80;;;;;;5076010;28;20081;-88
2022/12/05 08:56:22;;;;;;;10.80;4.32;;;14.60;92.10;;;;;;5073696;28;20115;-89
2022/12/05 08:58:48;;;;;;;11.43;4.00;;;14.60;92.20;;;;;;5073700;28;20024;-87
2022/12/05 09:01:19;;;;;;;8.57;4.00;;;14.60;92.30;;;;;;5075470;28;20020;-87
2022/12/05 09:03:45;;;;;;;10.98;4.20;;;14.60;92.40;;;;;;5074229;28;20116;-91
2022/12/05 09:06:15;;;;;;;9.95;3.85;;;14.60;92.60;;;;;;5074336;28;20036;-87
2022/12/05 09:08:42;;;;;;;9.60;3.88;;;14.60;92.60;;;;;;5086040;28;20496;-88
2022/12/05 09:11:16;;;;;;;6.13;3.13;;;14.60;92.70;;;;;;5084172;28;20031;-89
2022/12/05 09:13:43;;;;;;;9.15;3.78;;;14.50;93.10;;;;;;5074553;28;20020;-90
2022/12/05 09:16:11;;;;;;;7.35;3.20;;;14.60;92.90;;;;;;5074706;28;20020;-88
2022/12/05 09:18:37;;;;;;;5.05;2.97;;;14.50;92.90;;;;;;5075792;28;20047;-88
2022/12/05 09:21:15;;;;;;;10.40;3.95;;;14.50;93.00;;;;;;5073507;28;20048;-90
2022/12/05 09:23:41;;;;;;;5.47;3.30;;;14.50;93.10;;;;;;5073094;28;20020;-90
2022/12/05 09:26:10;;;;;;;6.05;3.10;;;14.50;93.10;;;;;;5073273;28;20031;-89
2022/12/05 09:28:36;;;;;;;5.97;3.40;;;14.50;93.20;;;;;;5072849;28;20020;-90
2022/12/05 09:31:05;;;;;;;9.45;3.55;;;14.50;93.20;;;;;;5073005;28;20113;-90
2022/12/05 09:33:33;;;;;;;6.40;3.05;;;14.50;93.30;;;;;;5068421;28;20021;-89
2022/12/05 09:36:05;;;;;;;6.45;2.95;;;14.50;93.40;;;;;;5069465;28;20048;-89
2022/12/05 09:38:30;;;;;;;4.60;2.78;;;14.50;93.40;;;;;;5056715;28;20107;-89
2022/12/05 09:41:13;;;;;;;7.40;2.42;;;14.50;93.50;;;;;;5072871;28;20116;-89
2022/12/05 09:43:52;;;;;;;7.38;3.38;;;14.50;93.50;;;;;;5072760;28;20066;-89
2022/12/05 09:46:38;;;;;;;7.50;3.03;;;14.50;93.60;;;;;;5072736;28;20078;-89
2022/12/05 09:49:06;;;;;;;8.82;2.78;;;14.50;93.60;;;;;;5072507;28;20025;-89
2022/12/05 09:51:32;;;;;;;6.78;2.67;;;14.50;93.60;;;;;;5072646;28;20162;-89
2022/12/05 09:53:58;;;;;;;5.45;3.00;;;14.50;93.60;;;;;;5071640;28;20067;-89
2022/12/05 09:56:29;;;;;;;5.15;3.10;;;14.50;93.60;;;;;;5072511;28;20016;-89
2022/12/05 09:58:57;;;;;;;6.82;2.55;;;14.50;93.60;;;;;;5072264;28;20039;-89
2022/12/05 10:01:53;;;;;;;4.60;2.53;;;14.50;93.60;;;;;;5072340;28;20447;-89
2022/12/05 10:04:33;;;;;;;5.70;2.63;;;14.50;93.60;;;;;;5053424;28;20028;-89
2022/12/05 10:07:21;;;;;;;4.68;3.22;;;14.50;93.70;;;;;;5094156;28;20053;-88
2022/12/05 10:10:11;;;;;;;4.80;2.92;;;14.50;93.70;;;;;;5094009;28;20476;-89
2022/12/05 10:13:00;;;;;;;5.82;2.95;;;14.50;93.70;;;;;;5081129;28;20508;-89
2022/12/05 10:15:44;;;;;;;4.35;2.30;;;14.50;93.70;;;;;;5072162;28;20074;-89
2022/12/05 10:18:38;;;;;;;6.85;2.75;;;14.50;93.80;;;;;;5072050;28;20028;-89
2022/12/05 10:21:26;;;;;;;6.88;2.72;;;14.40;93.80;;;;;;5072443;28;20021;-90
2022/12/05 10:24:10;;;;;;;5.00;2.53;;;14.50;93.80;;;;;;5071948;28;20473;-89
2022/12/05 10:26:53;;;;;;;4.20;2.38;;;14.50;93.80;;;;;;5073129;28;20063;-89
2022/12/05 10:29:33;;;;;;;3.70;2.67;;;14.50;93.80;;;;;;5071592;28;20032;-89
2022/12/05 10:32:22;;;;;;;6.25;2.75;;;14.40;93.80;;;;;;5071731;28;20119;-88
2022/12/05 10:34:49;;;;;;;3.70;2.45;;;14.50;93.90;;;;;;5071712;28;20020;-90
2022/12/05 10:37:18;;;;;;;3.60;2.63;;;14.40;93.90;;;;;;5071927;28;20061;-89
2022/12/05 10:39:45;;;;;;;5.72;2.67;;;14.40;93.90;;;;;;5071670;28;20024;-89
2022/12/05 10:42:18;;;;;;;4.00;2.60;;;14.40;93.90;;;;;;5073130;28;20028;-89
2022/12/05 10:44:44;;;;;;;3.75;2.55;;;14.40;93.90;;;;;;5071937;28;20031;-89
2022/12/05 10:47:11;;;;;;;6.80;3.00;;;14.40;93.90;;;;;;5071524;28;20401;-89
2022/12/05 10:49:37;;;;;;;5.10;2.25;;;14.40;93.90;;;;;;5071457;28;20028;-90
2022/12/05 10:52:03;;;;;;;5.82;2.42;;;14.40;93.90;;;;;;5071512;28;20028;-89
2022/12/05 10:54:34;;;;;;;5.05;2.78;;;14.40;93.90;;;;;;5071447;28;20390;-90
2022/12/05 10:57:00;;;;;;;3.45;2.35;;;14.40;94.00;;;;;;5071488;28;20031;-88
2022/12/05 10:59:45;;;;;;;7.25;2.83;;;14.40;94.00;;;;;;5071079;28;20473;-89
2022/12/05 11:02:26;;;;;;;5.05;2.88;;;14.40;94.00;;;;;;5071377;28;20031;-89
2022/12/05 11:04:53;;;;;;;5.25;2.75;;;14.40;93.90;;;;;;5071452;28;20039;-89
2022/12/05 11:07:42;;;;;;;3.95;2.58;;;14.40;93.90;;;;;;5071228;28;20035;-89
2022/12/05 11:10:36;;;;;;;3.42;2.03;;;14.40;94.00;;;;;;5068050;28;20032;-89
2022/12/05 11:13:22;;;;;;;4.13;2.22;;;14.40;94.00;;;;;;5085086;28;20032;-89
2022/12/05 11:15:48;;;;;;;3.88;2.28;;;14.40;94.00;;;;;;5052317;28;20028;-90
2022/12/05 11:18:31;;;;;;;3.17;2.25;;;14.40;94.00;;;;;;5084499;28;20024;-89
2022/12/05 11:21:12;;;;;;;4.78;2.63;;;14.40;94.00;;;;;;5084700;28;20037;-89
2022/12/05 11:23:38;;;;;;;3.95;2.63;;;14.50;94.00;;;;;;5098992;28;20025;-88
2022/12/05 11:26:19;;;;;;;3.00;2.17;;;14.40;93.90;;;;;;5087002;28;20031;-90
2022/12/05 11:28:45;;;;;;;4.38;2.40;;;14.50;94.00;;;;;;5085011;28;20036;-89
2022/12/05 11:31:10;;;;;;;3.45;2.35;;;14.40;94.00;;;;;;5099739;28;20024;-90
2022/12/05 11:33:37;;;;;;;3.33;2.38;;;14.50;94.00;;;;;;5071507;28;20024;-88
2022/12/05 11:36:13;;;;;;;5.47;2.30;;;14.40;94.00;;;;;;5071167;28;20021;-90
2022/12/05 11:38:40;;;;;;;2.63;2.13;;;14.50;94.00;;;;;;5070871;28;20073;-89
2022/12/05 11:41:30;;;;;;;3.55;2.30;;;14.40;94.00;;;;;;5072151;28;20028;-89
2022/12/05 11:44:22;;;;;;;5.10;2.40;;;14.40;94.10;;;;;;5070960;28;20020;-89
2022/12/05 11:47:08;;;;;;;8.05;2.45;;;14.40;94.00;;;;;;5071667;28;20025;-89
2022/12/05 11:49:55;;;;;;;3.30;2.10;;;14.40;94.00;;;;;;5070739;28;20139;-89
2022/12/05 11:52:32;;;;;;;3.20;1.77;;;14.50;94.10;;;;;;5072228;28;20028;-89
2022/12/05 11:55:14;;;;;;;3.78;2.33;;;14.40;94.00;;;;;;5070977;28;20025;-89
2022/12/05 11:58:04;;;;;;;3.00;2.00;;;14.50;94.00;;;;;;5070592;28;20024;-90
2022/12/05 12:00:36;;;;;;;3.60;2.30;;;14.50;94.00;;;;;;5070845;28;20028;-89
2022/12/05 12:03:27;;;;;;;4.63;2.55;;;14.50;94.00;;;;;;5072010;28;20035;-88
2022/12/05 12:06:14;;;;;;;3.75;2.17;;;14.50;94.00;;;;;;5070830;28;20028;-89
2022/12/05 12:09:06;;;;;;;2.13;1.90;;;14.50;94.00;;;;;;5070666;28;20021;-89
2022/12/05 12:11:52;;;;;;;6.15;2.20;;;14.50;94.00;;;;;;5070781;28;20020;-90
2022/12/05 12:14:36;;;;;;;11.23;2.42;;;14.50;94.00;;;;;;5070460;28;20016;-89
2022/12/05 12:17:16;;;;;;;2.70;1.95;;;14.50;94.00;;;;;;5074531;28;20067;-89
2022/12/05 12:20:06;;;;;;;3.70;2.20;;;14.50;94.10;;;;;;5074445;28;20028;-89
2022/12/05 12:22:58;;;;;;;3.13;1.95;;;14.50;94.10;;;;;;5074490;28;20036;-89
2022/12/05 12:25:49;;;;;;;4.32;2.10;;;14.50;94.10;;;;;;5074247;28;20016;-89
2022/12/05 12:28:36;;;;;;;7.05;2.15;;;14.40;94.50;;;;;;5074284;28;20078;-89
2022/12/05 12:31:19;;;;;;;2.33;1.48;;;14.40;94.20;;;;;;5073966;28;20056;-89
2022/12/05 12:33:58;;;;;;;2.97;1.90;;;14.40;94.20;;;;;;5074170;28;20477;-89
2022/12/05 12:36:51;;;;;;;4.43;2.38;;;14.40;94.20;;;;;;5074176;28;20024;-90
2022/12/05 12:39:58;;;;;;;2.75;1.83;;;14.40;94.20;;;;;;5073931;28;20030;-90
2022/12/05 12:42:39;;;;;;;3.38;2.22;;;14.40;94.20;;;;;;5074045;28;20036;-90
2022/12/05 12:45:23;;;;;;;3.67;2.10;;;14.40;94.20;;;;;;5073916;28;20424;-89
2022/12/05 12:47:49;;;;;;;3.33;2.10;;;14.40;94.10;;;;;;5073756;28;20401;-89
2022/12/05 12:50:33;;;;;;;3.25;2.00;;;14.50;94.10;;;;;;5073809;28;20020;-89
2022/12/05 12:53:08;;;;;;;2.88;1.90;;;14.50;94.10;;;;;;5073869;28;20151;-88
2022/12/05 12:56:10;;;;;;;2.83;1.73;;;14.50;94.10;;;;;;5073803;28;20389;-89
2022/12/05 12:59:02;;;;;;;2.45;1.92;;;14.50;94.00;;;;;;5073667;28;20073;-89
2022/12/05 13:01:55;;;;;;;4.18;1.90;;;14.50;94.00;;;;;;5073694;28;20033;-89
2022/12/05 13:04:32;;;;;;;3.40;1.90;;;14.50;94.00;;;;;;5073636;28;20032;-90
2022/12/05 13:07:07;;;;;;;4.05;1.75;;;14.50;94.10;;;;;;5073720;28;20043;-89
2022/12/05 13:09:58;;;;;;;2.03;1.73;;;14.50;94.10;;;;;;5073257;28;20044;-89
2022/12/05 13:12:25;;;;;;;;;;;14.50;94.10;;;;;;5059793;28;20075;-89
2022/12/05 13:14:57;;;;;;;2.65;1.88;;;14.40;94.10;;;;;;5073322;28;19904;-89
2022/12/05 13:17:23;;;;;;;2.60;1.98;;;14.40;94.10;;;;;;5073161;28;20099;-89